createdAt,value
2022-12-31T00:02:20.903Z,4.75
2022-12-31T00:04:48.517Z,3.70
2022-12-31T00:07:14.957Z,3.88
2022-12-31T00:09:41.379Z,5.72
2022-12-31T00:12:07.843Z,4.55
2022-12-31T00:14:34.194Z,5.72
2022-12-31T00:17:00.647Z,5.30
2022-12-31T00:19:27.180Z,5.22
2022-12-31T00:21:53.605Z,5.22
2022-12-31T00:24:20.013Z,4.55
2022-12-31T00:26:46.405Z,4.20
2022-12-31T00:29:12.846Z,4.53
2022-12-31T00:31:39.267Z,3.00
2022-12-31T00:34:05.988Z,4.47
2022-12-31T00:36:35.085Z,3.70
2022-12-31T00:39:02.580Z,2.67
2022-12-31T00:41:30.015Z,2.97
2022-12-31T00:43:56.839Z,2.53
2022-12-31T00:46:23.460Z,3.15
2022-12-31T00:48:49.951Z,2.30
2022-12-31T00:51:18.362Z,2.05
2022-12-31T00:53:45.341Z,2.35
2022-12-31T00:56:17.020Z,2.88
2022-12-31T00:58:43.641Z,2.13
2022-12-31T01:01:11.070Z,2.40
2022-12-31T01:03:37.750Z,3.17
2022-12-31T01:06:05.022Z,2.38
2022-12-31T01:08:31.464Z,2.95
2022-12-31T01:11:16.126Z,2.45
2022-12-31T01:13:42.496Z,2.67
2022-12-31T01:16:11.018Z,3.13
2022-12-31T01:18:37.877Z,3.28
2022-12-31T01:21:07.664Z,3.83
2022-12-31T01:23:34.525Z,3.08
2022-12-31T01:26:02.612Z,3.10
2022-12-31T01:28:29.255Z,3.35
2022-12-31T01:30:55.919Z,3.10
2022-12-31T01:33:22.573Z,3.13
2022-12-31T01:35:49.225Z,3.30
2022-12-31T01:38:15.772Z,2.53
2022-12-31T01:40:42.500Z,2.10
2022-12-31T01:43:19.112Z,2.00
2022-12-31T01:45:52.441Z,2.30
2022-12-31T01:48:24.986Z,1.80
2022-12-31T01:53:18.278Z,3.65
2022-12-31T01:55:52.839Z,2.30
2022-12-31T01:58:22.896Z,2.47
2022-12-31T02:00:51.608Z,2.80
2022-12-31T02:03:18.949Z,2.45
2022-12-31T02:05:51.694Z,2.85
2022-12-31T02:08:18.177Z,2.75
2022-12-31T02:10:44.576Z,2.17
2022-12-31T02:13:11.025Z,2.10
2022-12-31T02:15:58.995Z,2.00
2022-12-31T02:18:31.424Z,3.03
2022-12-31T02:21:19.529Z,1.75
2022-12-31T02:24:07.230Z,2.55
2022-12-31T02:26:45.476Z,1.42
2022-12-31T02:29:48.652Z,2.22
2022-12-31T02:32:25.267Z,2.22
2022-12-31T02:34:56.054Z,2.55
2022-12-31T02:37:23.366Z,5.03
2022-12-31T02:39:50.005Z,2.13
2022-12-31T02:42:16.560Z,1.63
2022-12-31T02:44:43.391Z,1.95
2022-12-31T02:47:09.774Z,2.10
2022-12-31T02:49:44.025Z,1.50
2022-12-31T02:52:33.047Z,2.22
2022-12-31T02:55:20.855Z,2.40
2022-12-31T02:58:21.221Z,1.60
2022-12-31T03:01:13.188Z,2.90
2022-12-31T03:03:39.927Z,1.23
2022-12-31T03:06:08.249Z,3.30
2022-12-31T03:08:54.563Z,1.70
2022-12-31T03:11:39.436Z,1.23
2022-12-31T03:14:05.835Z,1.35
2022-12-31T03:16:32.653Z,1.35
2022-12-31T03:19:17.700Z,1.55
2022-12-31T03:22:02.753Z,1.50
2022-12-31T03:24:47.736Z,1.23
2022-12-31T03:27:14.186Z,1.85
2022-12-31T03:29:40.585Z,1.27
2022-12-31T03:32:06.975Z,1.27
2022-12-31T03:34:33.375Z,1.35
2022-12-31T03:36:59.813Z,1.25
2022-12-31T03:39:26.304Z,2.33
2022-12-31T03:41:52.688Z,3.25
2022-12-31T03:44:19.107Z,1.85
2022-12-31T03:46:45.492Z,1.90
2022-12-31T03:49:11.852Z,1.50
2022-12-31T03:51:38.229Z,2.10
2022-12-31T03:54:04.626Z,1.10
2022-12-31T03:56:31.098Z,1.38
2022-12-31T03:58:57.474Z,0.90
2022-12-31T04:01:24.328Z,1.15
2022-12-31T04:03:50.894Z,1.35
2022-12-31T04:06:17.305Z,2.35
2022-12-31T04:08:43.689Z,2.58
2022-12-31T04:11:10.142Z,1.88
2022-12-31T04:13:36.639Z,2.55
2022-12-31T04:16:03.062Z,2.22
2022-12-31T04:18:29.484Z,1.85
2022-12-31T04:21:01.606Z,0.93
2022-12-31T04:23:28.004Z,0.80
2022-12-31T04:25:54.358Z,0.30
2022-12-31T04:28:20.973Z,0.30
2022-12-31T04:30:47.338Z,1.00
2022-12-31T04:33:13.754Z,1.02
2022-12-31T04:35:40.155Z,1.25
2022-12-31T04:38:06.595Z,1.65
2022-12-31T04:40:32.991Z,0.40
2022-12-31T04:42:59.386Z,0.35
2022-12-31T04:45:25.837Z,0.40
2022-12-31T04:47:52.287Z,0.40
2022-12-31T04:50:18.655Z,0.30
2022-12-31T04:52:45.773Z,0.30
2022-12-31T04:55:12.236Z,0.40
2022-12-31T04:57:38.876Z,0.35
2022-12-31T05:00:05.717Z,0.40
2022-12-31T05:02:32.435Z,0.50
2022-12-31T05:04:58.919Z,0.30
2022-12-31T05:07:25.282Z,0.95
2022-12-31T05:09:51.720Z,0.60
2022-12-31T05:12:18.109Z,1.05
2022-12-31T05:14:44.492Z,0.80
2022-12-31T05:17:10.888Z,0.50
2022-12-31T05:19:37.281Z,0.73
2022-12-31T05:22:41.990Z,0.80
2022-12-31T05:25:08.784Z,1.50
2022-12-31T05:27:35.385Z,0.50
2022-12-31T05:30:01.755Z,0.57
2022-12-31T05:32:28.323Z,0.80
2022-12-31T05:34:54.711Z,1.42
2022-12-31T05:37:21.410Z,1.00
2022-12-31T05:39:47.874Z,1.92
2022-12-31T05:42:14.254Z,1.30
2022-12-31T05:44:40.663Z,1.13
2022-12-31T05:47:07.040Z,1.20
2022-12-31T05:49:33.421Z,1.10
2022-12-31T05:51:59.884Z,0.82
2022-12-31T05:54:26.434Z,1.60
2022-12-31T05:56:52.935Z,0.80
2022-12-31T05:59:19.357Z,1.27
2022-12-31T06:01:45.774Z,1.30
2022-12-31T06:04:12.186Z,1.30
2022-12-31T06:06:38.661Z,1.70
2022-12-31T06:09:05.141Z,2.05
2022-12-31T06:11:31.535Z,2.50
2022-12-31T06:13:58.299Z,2.80
2022-12-31T06:16:24.842Z,2.92
2022-12-31T06:18:51.247Z,3.13
2022-12-31T06:21:19.091Z,3.47
2022-12-31T06:23:45.711Z,3.78
2022-12-31T06:26:12.075Z,6.22
2022-12-31T06:28:38.496Z,3.15
2022-12-31T06:31:07.103Z,3.88
2022-12-31T06:33:34.200Z,2.78
2022-12-31T06:36:04.232Z,2.75
2022-12-31T06:38:31.701Z,2.13
2022-12-31T06:40:58.168Z,1.98
2022-12-31T06:43:24.568Z,1.77
2022-12-31T06:45:50.957Z,1.92
2022-12-31T06:48:17.635Z,3.33
2022-12-31T06:50:44.004Z,2.28
2022-12-31T06:53:10.366Z,3.53
2022-12-31T06:55:36.976Z,1.60
2022-12-31T06:58:04.448Z,1.70
2022-12-31T07:00:31.009Z,1.63
2022-12-31T07:03:23.243Z,1.45
2022-12-31T07:05:52.891Z,1.90
2022-12-31T07:08:33.821Z,2.10
2022-12-31T07:11:06.165Z,2.05
2022-12-31T07:13:45.198Z,2.60
2022-12-31T07:16:17.708Z,1.80
2022-12-31T07:18:49.010Z,2.15
2022-12-31T07:21:17.613Z,2.30
2022-12-31T07:23:44.123Z,2.28
2022-12-31T07:26:18.888Z,1.02
2022-12-31T07:29:08.560Z,0.60
2022-12-31T07:31:51.088Z,0.80
2022-12-31T07:34:42.234Z,0.65
2022-12-31T07:37:43.605Z,0.63
2022-12-31T07:40:47.549Z,0.80
2022-12-31T07:43:22.714Z,3.60
2022-12-31T07:45:53.110Z,2.63
2022-12-31T07:48:27.402Z,1.40
2022-12-31T07:50:55.271Z,1.15
2022-12-31T07:53:22.998Z,1.77
2022-12-31T07:55:54.046Z,0.90
2022-12-31T07:58:58.178Z,1.35
2022-12-31T08:01:33.680Z,1.60
2022-12-31T08:04:05.442Z,2.20
2022-12-31T08:06:53.977Z,1.67
2022-12-31T08:09:42.343Z,2.30
2022-12-31T08:12:08.879Z,1.60
2022-12-31T08:14:43.300Z,3.42
2022-12-31T08:17:17.798Z,2.13
2022-12-31T08:19:45.781Z,2.85
2022-12-31T08:22:45.939Z,2.10
2022-12-31T08:25:23.739Z,4.50
2022-12-31T08:28:11.404Z,3.08
2022-12-31T08:30:53.464Z,4.88
2022-12-31T08:33:30.422Z,3.92
2022-12-31T08:36:17.232Z,6.47
2022-12-31T08:38:50.735Z,3.90
2022-12-31T08:41:23.543Z,5.40
2022-12-31T08:44:04.459Z,1.85
2022-12-31T08:46:48.837Z,4.43
2022-12-31T08:49:15.466Z,4.38
2022-12-31T08:51:42.154Z,2.55
2022-12-31T08:54:12.336Z,2.53
2022-12-31T08:57:01.042Z,3.50
2022-12-31T08:59:44.367Z,2.22
2022-12-31T09:02:32.513Z,2.03
2022-12-31T09:05:16.810Z,2.33
2022-12-31T09:08:23.622Z,2.00
2022-12-31T09:11:08.075Z,2.42
2022-12-31T09:13:54.032Z,2.60
2022-12-31T09:16:41.937Z,2.78
2022-12-31T09:19:11.671Z,1.70
2022-12-31T09:21:41.699Z,1.77
2022-12-31T09:24:11.719Z,1.90
2022-12-31T09:27:06.590Z,3.08
2022-12-31T09:29:44.894Z,2.55
2022-12-31T09:32:37.137Z,1.85
2022-12-31T09:35:11.220Z,2.13
2022-12-31T09:37:50.837Z,4.82
2022-12-31T09:40:50.008Z,3.90
2022-12-31T09:43:45.078Z,1.38
2022-12-31T09:46:24.314Z,1.33
2022-12-31T09:49:02.640Z,2.65
2022-12-31T09:51:36.718Z,2.00
2022-12-31T09:54:09.240Z,2.17
2022-12-31T09:56:39.931Z,3.13
2022-12-31T09:59:29.900Z,1.67
2022-12-31T10:02:03.449Z,2.33
2022-12-31T10:04:57.259Z,2.00
2022-12-31T10:07:28.351Z,1.83
2022-12-31T10:09:57.619Z,0.85
2022-12-31T10:12:40.041Z,1.33
2022-12-31T10:15:41.654Z,2.05
2022-12-31T10:18:28.711Z,1.38
2022-12-31T10:21:25.063Z,1.90
2022-12-31T10:24:03.231Z,3.03
2022-12-31T10:26:54.835Z,1.40
2022-12-31T10:29:47.197Z,1.80
2022-12-31T10:32:16.093Z,2.33
2022-12-31T10:35:30.743Z,1.70
2022-12-31T10:38:11.379Z,3.72
2022-12-31T10:41:02.083Z,1.70
2022-12-31T10:43:43.575Z,2.15
2022-12-31T10:46:23.873Z,3.78
2022-12-31T10:49:18.011Z,1.35
2022-12-31T10:51:56.470Z,2.25
2022-12-31T10:55:01.863Z,3.20
2022-12-31T10:58:03.991Z,3.55
2022-12-31T11:00:49.061Z,2.53
2022-12-31T11:03:43.122Z,2.17
2022-12-31T11:06:51.787Z,1.08
2022-12-31T11:09:34.661Z,2.55
2022-12-31T11:12:28.125Z,4.13
2022-12-31T11:15:03.415Z,2.75
2022-12-31T11:17:43.360Z,1.65
2022-12-31T11:20:24.904Z,3.13
2022-12-31T11:23:01.471Z,2.58
2022-12-31T11:25:43.791Z,5.47
2022-12-31T11:28:25.363Z,1.65
2022-12-31T11:31:11.262Z,4.03
2022-12-31T11:33:50.116Z,3.92
2022-12-31T11:36:32.504Z,4.38
2022-12-31T11:39:16.826Z,1.85
2022-12-31T11:41:48.672Z,1.80
2022-12-31T11:44:24.076Z,4.03
2022-12-31T11:47:08.876Z,3.28
2022-12-31T11:49:41.223Z,4.75
2022-12-31T11:52:33.426Z,2.78
2022-12-31T11:55:25.229Z,4.22
2022-12-31T11:57:52.289Z,3.13
2022-12-31T12:00:25.121Z,4.88
2022-12-31T12:03:00.129Z,2.60
2022-12-31T12:05:27.733Z,3.90
2022-12-31T12:07:54.604Z,1.90
2022-12-31T12:10:48.032Z,5.22
2022-12-31T12:13:17.334Z,3.63
2022-12-31T12:15:50.130Z,6.20
2022-12-31T12:18:44.589Z,4.45
2022-12-31T12:21:21.266Z,4.97
2022-12-31T12:24:04.832Z,4.25
2022-12-31T12:26:37.147Z,3.65
2022-12-31T12:29:17.384Z,2.33
2022-12-31T12:31:55.921Z,3.58
2022-12-31T12:34:25.385Z,3.53
2022-12-31T12:36:52.158Z,3.17
2022-12-31T12:39:29.966Z,2.75
2022-12-31T12:42:12.891Z,3.08
2022-12-31T12:44:40.152Z,2.50
2022-12-31T12:47:08.969Z,3.20
2022-12-31T12:49:40.650Z,4.20
2022-12-31T12:52:23.555Z,2.22
2022-12-31T12:55:16.210Z,5.30
2022-12-31T12:57:50.559Z,3.58
2022-12-31T13:00:42.276Z,7.00
2022-12-31T13:03:27.387Z,3.38
2022-12-31T13:06:08.350Z,3.83
2022-12-31T13:08:54.391Z,3.00
2022-12-31T13:11:44.170Z,2.40
2022-12-31T13:14:23.624Z,4.07
2022-12-31T13:17:18.725Z,7.32
2022-12-31T13:19:52.504Z,2.78
2022-12-31T13:22:42.615Z,4.28
2022-12-31T13:25:24.393Z,3.67
2022-12-31T13:27:58.269Z,2.87
2022-12-31T13:30:40.570Z,2.30
2022-12-31T13:33:14.727Z,3.50
2022-12-31T13:35:58.409Z,3.88
2022-12-31T13:38:30.522Z,4.40
2022-12-31T13:41:11.569Z,3.70
2022-12-31T13:43:59.159Z,2.95
2022-12-31T13:46:45.776Z,3.42
2022-12-31T13:49:20.835Z,3.33
2022-12-31T13:51:49.734Z,4.00
2022-12-31T13:54:24.783Z,3.22
2022-12-31T13:56:52.122Z,5.65
2022-12-31T13:59:33.554Z,3.55
2022-12-31T14:02:24.926Z,2.47
2022-12-31T14:05:03.279Z,3.22
2022-12-31T14:07:41.872Z,2.80
2022-12-31T14:10:16.253Z,7.60
2022-12-31T14:12:52.649Z,4.28
2022-12-31T14:15:29.514Z,3.60
2022-12-31T14:18:14.017Z,2.75
2022-12-31T14:20:58.925Z,2.20
2022-12-31T14:24:05.048Z,2.80
2022-12-31T14:26:34.745Z,2.08
2022-12-31T14:29:07.276Z,2.90
2022-12-31T14:32:09.884Z,5.78
2022-12-31T14:34:57.625Z,3.55
2022-12-31T14:37:47.077Z,2.22
2022-12-31T14:40:34.820Z,2.97
2022-12-31T14:43:23.101Z,4.22
2022-12-31T14:45:52.437Z,3.30
2022-12-31T14:48:56.710Z,4.35
2022-12-31T14:51:29.711Z,3.03
2022-12-31T14:53:57.279Z,5.22
2022-12-31T14:56:31.774Z,2.88
2022-12-31T14:59:01.234Z,4.07
2022-12-31T15:01:28.015Z,3.15
2022-12-31T15:03:57.668Z,3.50
2022-12-31T15:06:24.018Z,2.70
2022-12-31T15:09:23.113Z,4.55
2022-12-31T15:12:04.796Z,4.55
2022-12-31T15:14:49.875Z,3.53
2022-12-31T15:17:43.619Z,3.75
2022-12-31T15:20:30.027Z,2.83
2022-12-31T15:22:56.780Z,6.07
2022-12-31T15:25:30.910Z,4.63
2022-12-31T15:28:05.371Z,4.78
2022-12-31T15:30:48.524Z,4.68
2022-12-31T15:33:22.767Z,5.43
2022-12-31T15:35:51.840Z,2.13
2022-12-31T15:38:39.010Z,5.47
2022-12-31T15:41:18.710Z,2.58
2022-12-31T15:44:00.243Z,3.67
2022-12-31T15:46:30.785Z,4.22
2022-12-31T15:49:13.412Z,8.35
2022-12-31T15:51:45.252Z,5.70
2022-12-31T15:54:39.990Z,2.70
2022-12-31T15:57:09.517Z,6.72
2022-12-31T15:59:38.116Z,3.25
2022-12-31T16:02:04.622Z,6.30
2022-12-31T16:04:33.345Z,4.18
2022-12-31T16:07:03.753Z,5.55
2022-12-31T16:09:34.002Z,4.70
2022-12-31T16:12:01.544Z,5.60
2022-12-31T16:14:39.033Z,4.57
2022-12-31T16:17:06.082Z,3.67
2022-12-31T16:19:46.125Z,3.08
2022-12-31T16:22:18.896Z,4.05
2022-12-31T16:25:10.843Z,4.63
2022-12-31T16:27:31.970Z,3.83
2022-12-31T16:30:08.365Z,3.42
2022-12-31T16:32:38.686Z,3.38
2022-12-31T16:35:29.454Z,3.42
2022-12-31T16:38:03.623Z,6.65
2022-12-31T16:40:30.032Z,6.07
2022-12-31T16:42:56.413Z,5.32
2022-12-31T16:45:34.524Z,4.80
2022-12-31T16:48:11.217Z,6.85
2022-12-31T16:50:48.269Z,6.70
2022-12-31T16:53:17.875Z,4.78
2022-12-31T16:55:51.421Z,5.20
2022-12-31T16:58:22.029Z,5.70
2022-12-31T17:00:50.198Z,7.03
2022-12-31T17:03:21.531Z,5.32
2022-12-31T17:06:03.743Z,6.35
2022-12-31T17:08:59.470Z,4.18
2022-12-31T17:11:34.061Z,4.43
2022-12-31T17:14:06.706Z,5.25
2022-12-31T17:16:34.439Z,3.58
2022-12-31T17:19:01.118Z,4.68
2022-12-31T17:21:30.577Z,6.05
2022-12-31T17:24:03.624Z,6.00
2022-12-31T17:26:32.023Z,4.65
2022-12-31T17:29:00.347Z,5.70
2022-12-31T17:31:28.047Z,5.53
2022-12-31T17:33:55.766Z,4.47
2022-12-31T17:36:23.559Z,4.28
2022-12-31T17:38:50.304Z,3.08
2022-12-31T17:41:27.157Z,5.95
2022-12-31T17:43:55.213Z,3.10
2022-12-31T17:46:22.961Z,7.20
2022-12-31T17:49:11.072Z,5.22
2022-12-31T17:51:41.219Z,4.40
2022-12-31T17:54:14.893Z,3.40
2022-12-31T17:56:41.758Z,3.63
2022-12-31T17:59:08.184Z,4.75
2022-12-31T18:01:34.665Z,3.45
2022-12-31T18:04:01.323Z,5.47
2022-12-31T18:06:27.782Z,5.22
2022-12-31T18:08:56.943Z,3.28
2022-12-31T18:11:24.024Z,4.45
2022-12-31T18:13:50.551Z,3.78
2022-12-31T18:16:17.229Z,4.60
2022-12-31T18:18:45.200Z,5.22
2022-12-31T18:21:28.301Z,4.00
2022-12-31T18:26:24.532Z,3.42
2022-12-31T18:28:51.364Z,6.07
2022-12-31T18:31:20.724Z,3.38
2022-12-31T18:33:48.135Z,3.92
2022-12-31T18:36:16.095Z,3.25
2022-12-31T18:38:45.287Z,5.03
2022-12-31T18:41:17.921Z,4.47
2022-12-31T18:43:44.426Z,4.45
2022-12-31T18:46:16.535Z,4.85
2022-12-31T18:48:44.043Z,6.70
2022-12-31T18:51:15.232Z,5.22
2022-12-31T18:53:41.607Z,6.00
2022-12-31T18:56:16.954Z,6.78
2022-12-31T18:58:44.339Z,5.35
2022-12-31T19:01:30.626Z,4.43
2022-12-31T19:04:06.660Z,5.63
2022-12-31T19:06:33.055Z,5.57
2022-12-31T19:09:01.199Z,7.88
2022-12-31T19:11:28.063Z,3.42
2022-12-31T19:13:54.481Z,3.80
2022-12-31T19:16:20.978Z,5.00
2022-12-31T19:18:48.948Z,5.80
2022-12-31T19:21:17.793Z,4.53
2022-12-31T19:23:45.287Z,4.65
2022-12-31T19:26:15.390Z,4.97
2022-12-31T19:28:41.895Z,4.03
2022-12-31T19:31:08.533Z,6.57
2022-12-31T19:33:34.946Z,4.40
2022-12-31T19:36:01.379Z,4.43
2022-12-31T19:38:32.550Z,4.75
2022-12-31T19:40:59.483Z,5.15
2022-12-31T19:43:25.908Z,3.88
2022-12-31T19:45:52.810Z,5.88
2022-12-31T19:48:25.830Z,9.07
2022-12-31T19:50:56.772Z,4.80
2022-12-31T19:53:26.200Z,3.42
2022-12-31T19:55:53.099Z,4.85
2022-12-31T19:58:25.448Z,4.07
2022-12-31T20:05:51.353Z,5.68
2022-12-31T20:08:20.191Z,7.10
2022-12-31T20:10:46.638Z,5.85
2022-12-31T20:13:13.033Z,6.22
2022-12-31T20:15:39.557Z,5.43
2022-12-31T20:18:06.104Z,6.75
2022-12-31T20:20:32.635Z,8.27
2022-12-31T20:22:59.023Z,7.25
2022-12-31T20:25:25.719Z,6.65
2022-12-31T20:27:54.370Z,4.45
2022-12-31T20:30:22.862Z,5.95
2022-12-31T20:32:51.616Z,8.57
2022-12-31T20:35:18.671Z,4.65
2022-12-31T20:37:45.087Z,6.82
2022-12-31T20:40:12.147Z,8.38
2022-12-31T20:42:40.591Z,4.07
2022-12-31T20:45:10.890Z,7.22
2022-12-31T20:47:37.720Z,5.43
2022-12-31T20:50:12.621Z,5.57
2022-12-31T20:52:39.273Z,6.53
2022-12-31T20:55:06.315Z,8.90
2022-12-31T20:57:33.882Z,8.07
2022-12-31T21:00:01.029Z,9.00
2022-12-31T21:02:41.053Z,7.22
2022-12-31T21:05:08.769Z,7.82
2022-12-31T21:07:35.351Z,9.75
2022-12-31T21:10:01.744Z,9.70
2022-12-31T21:12:43.439Z,9.45
2022-12-31T21:15:11.613Z,6.50
2022-12-31T21:17:38.007Z,5.10
2022-12-31T21:20:05.292Z,5.57
2022-12-31T21:22:33.633Z,4.82
2022-12-31T21:25:03.839Z,6.82
2022-12-31T21:27:30.236Z,9.88
2022-12-31T21:32:43.023Z,5.05
2022-12-31T21:37:58.614Z,5.25
2022-12-31T21:40:27.680Z,7.82
2022-12-31T21:42:54.059Z,8.90
2022-12-31T21:45:20.423Z,8.85
2022-12-31T21:48:05.377Z,7.40
2022-12-31T21:50:32.469Z,9.70
2022-12-31T21:52:58.833Z,7.75
2022-12-31T21:55:43.923Z,6.80
2022-12-31T21:58:27.349Z,9.00
2022-12-31T22:01:13.813Z,10.63
2022-12-31T22:03:40.618Z,10.23
2022-12-31T22:06:16.223Z,10.07
2022-12-31T22:08:45.091Z,8.02
2022-12-31T22:11:12.495Z,8.60
2022-12-31T22:13:39.045Z,10.38
2022-12-31T22:16:06.348Z,8.00
2022-12-31T22:18:40.878Z,5.53
2022-12-31T22:21:19.571Z,11.63
2022-12-31T22:23:54.770Z,6.68
2022-12-31T22:26:24.539Z,8.35
2022-12-31T22:28:51.310Z,5.85
2022-12-31T22:31:24.406Z,9.60
2022-12-31T22:33:50.986Z,7.57
2022-12-31T22:36:19.585Z,11.43
2022-12-31T22:38:46.144Z,8.25
2022-12-31T22:41:15.239Z,11.00
2022-12-31T22:43:44.252Z,6.57
2022-12-31T22:46:29.708Z,11.38
2022-12-31T22:48:58.047Z,8.98
2022-12-31T22:51:24.438Z,6.10
2022-12-31T22:53:50.939Z,9.57
2022-12-31T22:56:18.424Z,9.25
2022-12-31T22:58:45.450Z,6.75
2022-12-31T23:01:21.772Z,8.35
2022-12-31T23:03:49.618Z,7.95
2022-12-31T23:06:16.404Z,18.58
2022-12-31T23:09:02.932Z,10.77
2022-12-31T23:11:29.940Z,14.35
2022-12-31T23:14:15.063Z,15.63
2022-12-31T23:16:59.923Z,16.17
2022-12-31T23:20:05.144Z,13.32
2022-12-31T23:22:50.318Z,13.95
2022-12-31T23:25:17.129Z,15.77
2022-12-31T23:27:43.710Z,15.68
2022-12-31T23:30:10.923Z,17.85
2022-12-31T23:32:37.472Z,18.00
2022-12-31T23:35:09.563Z,19.33
2022-12-31T23:37:36.529Z,18.20
2022-12-31T23:40:02.926Z,17.17
2022-12-31T23:42:29.314Z,14.38
2022-12-31T23:44:55.692Z,14.60
2022-12-31T23:47:22.135Z,15.13
2022-12-31T23:49:48.577Z,12.70
2022-12-31T23:52:15.126Z,15.73
2022-12-31T23:54:41.521Z,11.95
2022-12-31T23:57:08.029Z,11.77
2022-12-31T23:59:34.417Z,12.70
